createdAt,value
2019-02-10T00:02:24.518Z,6.30
2019-02-10T00:04:56.213Z,6.20
2019-02-10T00:07:26.229Z,6.10
2019-02-10T00:09:58.466Z,6.10
2019-02-10T00:12:32.880Z,6.10
2019-02-10T00:15:15.963Z,6.10
2019-02-10T00:17:54.432Z,6.10
2019-02-10T00:20:27.386Z,6.10
2019-02-10T00:22:59.241Z,6.10
2019-02-10T00:25:31.884Z,6.00
2019-02-10T00:28:03.916Z,6.00
2019-02-10T00:30:38.375Z,6.00
2019-02-10T00:33:08.641Z,6.00
2019-02-10T00:35:38.985Z,5.90
2019-02-10T00:38:13.388Z,5.90
2019-02-10T00:40:45.612Z,5.90
2019-02-10T00:43:15.713Z,5.90
2019-02-10T00:45:54.025Z,5.90
2019-02-10T00:48:19.934Z,5.90
2019-02-10T00:50:52.559Z,5.80
2019-02-10T00:53:32.565Z,5.80
2019-02-10T00:56:04.373Z,5.80
2019-02-10T00:58:36.820Z,5.70
2019-02-10T01:01:08.747Z,5.70
2019-02-10T01:03:41.011Z,5.70
2019-02-10T01:06:16.131Z,5.70
2019-02-10T01:08:46.175Z,5.70
2019-02-10T01:11:20.842Z,5.60
2019-02-10T01:13:57.694Z,5.60
2019-02-10T01:16:29.501Z,5.60
2019-02-10T01:19:10.472Z,5.70
2019-02-10T01:21:45.877Z,5.70
2019-02-10T01:24:19.596Z,5.70
2019-02-10T01:26:52.805Z,5.70
2019-02-10T01:29:26.308Z,5.60
2019-02-10T01:32:00.694Z,5.60
2019-02-10T01:34:43.637Z,5.70
2019-02-10T01:37:18.373Z,5.70
2019-02-10T01:40:03.460Z,5.70
2019-02-10T01:42:31.654Z,5.70
2019-02-10T01:45:01.832Z,5.70
2019-02-10T01:47:32.064Z,5.70
2019-02-10T01:50:04.633Z,5.80
2019-02-10T01:52:38.527Z,5.80
2019-02-10T01:55:13.487Z,5.80
2019-02-10T01:57:45.086Z,5.80
2019-02-10T02:00:17.477Z,5.80
2019-02-10T02:02:58.140Z,5.80
2019-02-10T02:05:24.978Z,5.80
2019-02-10T02:07:55.265Z,5.80
2019-02-10T02:10:25.395Z,5.90
2019-02-10T02:12:55.712Z,5.80
2019-02-10T02:15:28.465Z,5.80
2019-02-10T02:18:02.888Z,5.90
2019-02-10T02:20:33.068Z,5.90
2019-02-10T02:23:10.206Z,5.90
2019-02-10T02:25:44.282Z,5.90
2019-02-10T02:28:09.747Z,6.00
2019-02-10T02:30:42.245Z,6.00
2019-02-10T02:33:24.632Z,5.90
2019-02-10T02:35:54.995Z,5.90
2019-02-10T02:38:30.183Z,6.00
2019-02-10T02:41:02.463Z,6.00
2019-02-10T02:43:34.048Z,6.00
2019-02-10T02:46:08.083Z,6.00
2019-02-10T02:48:48.049Z,6.00
2019-02-10T02:51:23.072Z,6.00
2019-02-10T02:53:56.180Z,5.90
2019-02-10T02:56:32.261Z,5.90
2019-02-10T02:59:08.650Z,5.90
2019-02-10T03:01:43.913Z,5.90
2019-02-10T03:05:07.688Z,5.90
2019-02-10T03:06:55.285Z,5.90
2019-02-10T03:09:29.083Z,5.90
2019-02-10T03:12:04.148Z,5.90
2019-02-10T03:14:33.813Z,5.90
2019-02-10T03:17:06.665Z,6.00
2019-02-10T03:19:39.862Z,6.10
2019-02-10T03:22:10.200Z,6.10
2019-02-10T03:24:44.500Z,6.10
2019-02-10T03:27:14.912Z,6.20
2019-02-10T03:30:02.683Z,6.20
2019-02-10T03:32:28.249Z,6.30
2019-02-10T03:35:01.935Z,6.30
2019-02-10T03:37:33.978Z,6.40
2019-02-10T03:40:04.457Z,6.40
2019-02-10T03:42:39.850Z,6.40
2019-02-10T03:45:13.522Z,6.40
2019-02-10T03:47:46.730Z,6.40
2019-02-10T03:50:18.308Z,6.40
2019-02-10T03:52:59.029Z,6.40
2019-02-10T03:55:33.841Z,6.40
2019-02-10T03:58:08.263Z,6.50
2019-02-10T04:00:39.964Z,6.40
2019-02-10T04:03:11.521Z,6.40
2019-02-10T04:05:47.892Z,6.50
2019-02-10T04:08:19.935Z,6.50
2019-02-10T04:10:57.198Z,6.50
2019-02-10T04:13:35.066Z,6.50
2019-02-10T04:16:05.913Z,6.50
2019-02-10T04:18:36.251Z,6.50
2019-02-10T04:21:08.112Z,6.50
2019-02-10T04:23:38.378Z,6.50
2019-02-10T04:26:11.629Z,6.60
2019-02-10T04:28:43.178Z,6.60
2019-02-10T04:31:13.370Z,6.70
2019-02-10T04:33:52.536Z,6.70
2019-02-10T04:36:32.201Z,6.70
2019-02-10T04:39:03.613Z,6.80
2019-02-10T04:41:35.151Z,6.80
2019-02-10T04:44:13.209Z,6.80
2019-02-10T04:46:44.810Z,6.70
2019-02-10T04:49:15.191Z,6.60
2019-02-10T04:51:49.545Z,6.60
2019-02-10T04:54:26.596Z,6.60
2019-02-10T04:57:06.641Z,6.70
2019-02-10T04:59:42.963Z,6.60
2019-02-10T05:02:13.814Z,6.70
2019-02-10T05:04:50.516Z,6.70
2019-02-10T05:07:38.205Z,6.80
2019-02-10T05:10:06.033Z,6.90
2019-02-10T05:12:38.528Z,6.90
2019-02-10T05:15:11.212Z,6.90
2019-02-10T05:17:42.439Z,6.90
2019-02-10T05:20:18.301Z,7.00
2019-02-10T05:22:47.096Z,7.00
2019-02-10T05:25:17.464Z,7.00
2019-02-10T05:27:48.659Z,7.00
2019-02-10T05:30:32.454Z,7.00
2019-02-10T05:32:59.040Z,7.00
2019-02-10T05:35:40.740Z,7.00
2019-02-10T05:38:04.157Z,7.00
2019-02-10T05:40:36.368Z,7.00
2019-02-10T05:43:09.003Z,7.00
2019-02-10T05:45:47.040Z,7.00
2019-02-10T05:48:27.268Z,7.00
2019-02-10T05:51:00.465Z,7.00
2019-02-10T05:53:33.475Z,7.00
2019-02-10T05:56:06.982Z,7.00
2019-02-10T05:58:45.209Z,7.10
2019-02-10T06:01:47.024Z,7.10
2019-02-10T06:04:22.292Z,7.10
2019-02-10T06:06:54.233Z,7.10
2019-02-10T06:09:28.264Z,7.10
2019-02-10T06:12:08.979Z,7.10
2019-02-10T06:14:30.410Z,7.10
2019-02-10T06:17:07.954Z,7.10
2019-02-10T06:19:39.632Z,7.10
2019-02-10T06:22:09.890Z,7.10
2019-02-10T06:24:41.704Z,7.00
2019-02-10T06:27:13.009Z,7.10
2019-02-10T06:29:47.461Z,7.10
2019-02-10T06:32:21.390Z,7.10
2019-02-10T06:34:53.809Z,7.10
2019-02-10T06:37:26.260Z,7.20
2019-02-10T06:39:58.042Z,7.10
2019-02-10T06:42:37.611Z,7.20
2019-02-10T06:45:08.223Z,7.20
2019-02-10T06:47:40.782Z,7.20
2019-02-10T06:50:14.501Z,7.20
2019-02-10T06:52:44.969Z,7.20
2019-02-10T06:55:15.381Z,7.20
2019-02-10T06:57:49.915Z,7.20
2019-02-10T07:00:50.889Z,7.30
2019-02-10T07:04:07.496Z,7.30
2019-02-10T07:06:39.549Z,7.50
2019-02-10T07:09:11.016Z,7.50
2019-02-10T07:11:40.986Z,7.40
2019-02-10T07:14:32.219Z,7.50
2019-02-10T07:17:32.843Z,7.50
2019-02-10T07:20:56.761Z,7.50
2019-02-10T07:23:59.280Z,7.50
2019-02-10T07:26:55.516Z,7.60
2019-02-10T07:29:42.262Z,7.60
2019-02-10T07:32:26.268Z,7.70
2019-02-10T07:35:26.322Z,8.00
2019-02-10T07:38:06.921Z,8.10
2019-02-10T07:41:17.893Z,8.00
2019-02-10T07:44:16.206Z,8.00
2019-02-10T07:47:05.437Z,8.00
2019-02-10T07:50:21.842Z,8.00
2019-02-10T07:53:28.217Z,8.00
2019-02-10T07:56:56.632Z,8.00
2019-02-10T07:59:49.536Z,8.00
2019-02-10T08:03:12.068Z,8.00
2019-02-10T08:06:29.919Z,8.00
2019-02-10T08:09:44.487Z,8.10
2019-02-10T08:12:44.623Z,8.10
2019-02-10T08:15:56.970Z,8.30
2019-02-10T08:18:54.359Z,8.40
2019-02-10T08:21:53.888Z,8.60
2019-02-10T08:24:58.955Z,8.80
2019-02-10T08:28:14.173Z,8.90
2019-02-10T08:31:12.688Z,9.00
2019-02-10T08:34:16.689Z,9.00
2019-02-10T08:37:36.357Z,9.10
2019-02-10T08:41:05.833Z,9.20
2019-02-10T08:44:15.251Z,9.10
2019-02-10T08:46:59.799Z,9.10
2019-02-10T08:50:21.021Z,9.20
2019-02-10T08:53:06.566Z,9.30
2019-02-10T08:55:36.972Z,9.40
2019-02-10T08:58:09.964Z,9.30
2019-02-10T09:00:47.729Z,9.30
2019-02-10T09:03:19.984Z,9.30
2019-02-10T09:05:50.187Z,9.40
2019-02-10T09:08:20.339Z,9.50
2019-02-10T09:10:53.262Z,9.60
2019-02-10T09:13:23.863Z,9.60
2019-02-10T09:15:57.553Z,9.50
2019-02-10T09:18:30.691Z,9.50
2019-02-10T09:21:07.206Z,9.50
2019-02-10T09:24:00.882Z,9.50
2019-02-10T09:26:33.400Z,9.50
2019-02-10T09:29:12.884Z,9.60
2019-02-10T09:31:43.078Z,9.70
2019-02-10T09:34:14.665Z,9.80
2019-02-10T09:36:50.784Z,10.00
2019-02-10T09:39:21.243Z,10.00
2019-02-10T09:41:51.490Z,10.00
2019-02-10T09:44:33.524Z,10.10
2019-02-10T09:47:12.187Z,10.00
2019-02-10T09:49:39.864Z,10.10
2019-02-10T09:52:09.982Z,10.20
2019-02-10T09:54:57.383Z,10.20
2019-02-10T09:57:29.343Z,10.20
2019-02-10T09:59:59.607Z,10.20
2019-02-10T10:02:34.437Z,10.40
2019-02-10T10:05:06.317Z,10.30
2019-02-10T10:07:39.056Z,10.30
2019-02-10T10:10:13.383Z,10.40
2019-02-10T10:12:45.922Z,10.50
2019-02-10T10:15:19.769Z,10.60
2019-02-10T10:17:53.979Z,10.40
2019-02-10T10:20:42.659Z,10.50
2019-02-10T10:30:29.152Z,10.80
2019-02-10T10:33:07.367Z,10.80
2019-02-10T10:35:37.358Z,10.70
2019-02-10T10:38:10.289Z,10.80
2019-02-10T10:40:40.363Z,10.90
2019-02-10T10:43:13.628Z,11.20
2019-02-10T10:45:45.317Z,11.30
2019-02-10T10:48:27.004Z,11.30
2019-02-10T10:51:02.426Z,11.20
2019-02-10T10:53:36.142Z,11.40
2019-02-10T10:56:14.702Z,11.40
2019-02-10T10:58:46.093Z,11.40
2019-02-10T11:01:25.136Z,11.40
2019-02-10T11:03:51.417Z,11.50
2019-02-10T11:06:23.205Z,11.60
2019-02-10T11:08:56.167Z,11.60
2019-02-10T11:11:30.079Z,11.60
2019-02-10T11:14:04.833Z,11.70
2019-02-10T11:16:56.987Z,11.80
2019-02-10T11:19:46.221Z,11.80
2019-02-10T11:22:30.574Z,11.90
2019-02-10T11:24:59.291Z,12.10
2019-02-10T11:27:29.825Z,12.00
2019-02-10T11:30:12.884Z,12.10
2019-02-10T11:32:43.123Z,12.10
2019-02-10T11:35:16.242Z,12.00
2019-02-10T11:37:48.529Z,12.10
2019-02-10T11:40:21.947Z,12.20
2019-02-10T11:42:52.098Z,12.30
2019-02-10T11:45:26.113Z,12.30
2019-02-10T11:47:56.221Z,12.40
2019-02-10T11:50:31.649Z,12.60
2019-02-10T11:53:04.751Z,12.70
2019-02-10T11:55:36.260Z,12.80
2019-02-10T11:58:15.170Z,13.00
2019-02-10T12:00:46.857Z,13.40
2019-02-10T12:03:21.710Z,13.30
2019-02-10T12:05:53.558Z,13.30
2019-02-10T12:08:34.988Z,13.40
2019-02-10T12:11:00.668Z,13.40
2019-02-10T12:13:34.567Z,13.40
2019-02-10T12:16:09.628Z,13.50
2019-02-10T12:18:41.154Z,13.60
2019-02-10T12:21:12.475Z,13.60
2019-02-10T12:23:52.997Z,13.60
2019-02-10T12:26:33.572Z,13.50
2019-02-10T12:29:09.708Z,13.60
2019-02-10T12:31:46.847Z,13.70
2019-02-10T12:34:22.543Z,13.70
2019-02-10T12:36:53.008Z,13.90
2019-02-10T12:39:25.687Z,13.90
2019-02-10T12:42:06.242Z,13.70
2019-02-10T12:44:36.218Z,13.80
2019-02-10T12:47:09.609Z,13.90
2019-02-10T12:49:51.642Z,13.80
2019-02-10T12:52:25.754Z,13.80
2019-02-10T12:54:56.065Z,13.70
2019-02-10T12:57:28.076Z,13.70
2019-02-10T12:59:59.287Z,13.70
2019-02-10T13:02:51.409Z,13.70
2019-02-10T13:05:29.703Z,13.70
2019-02-10T13:07:57.290Z,13.60
2019-02-10T13:10:38.046Z,13.50
2019-02-10T13:13:19.393Z,13.40
2019-02-10T13:15:51.862Z,13.20
2019-02-10T13:18:23.690Z,12.90
2019-02-10T13:21:01.646Z,12.80
2019-02-10T13:23:32.413Z,12.60
2019-02-10T13:26:05.451Z,12.50
2019-02-10T13:28:42.480Z,12.40
2019-02-10T13:31:16.348Z,12.20
2019-02-10T13:33:49.900Z,12.10
2019-02-10T13:36:24.665Z,11.90
2019-02-10T13:39:03.574Z,11.70
2019-02-10T13:41:44.328Z,11.60
2019-02-10T13:44:39.820Z,11.50
2019-02-10T13:47:00.250Z,11.40
2019-02-10T13:49:31.863Z,11.20
2019-02-10T13:52:08.661Z,11.20
2019-02-10T13:54:40.006Z,11.10
2019-02-10T13:57:10.379Z,11.00
2019-02-10T13:59:47.923Z,11.00
2019-02-10T14:02:23.883Z,11.00
2019-02-10T14:04:54.309Z,11.00
2019-02-10T14:07:24.222Z,11.00
2019-02-10T14:10:00.735Z,11.00
2019-02-10T14:12:33.760Z,10.90
2019-02-10T14:15:04.036Z,10.90
2019-02-10T14:17:57.344Z,10.80
2019-02-10T14:21:39.303Z,10.80
2019-02-10T14:23:38.670Z,10.70
2019-02-10T14:26:14.320Z,10.60
2019-02-10T14:28:51.690Z,10.60
2019-02-10T14:31:23.527Z,10.50
2019-02-10T14:34:03.449Z,10.50
2019-02-10T14:36:40.036Z,10.40
2019-02-10T14:39:14.918Z,10.40
2019-02-10T14:41:45.242Z,10.40
2019-02-10T14:44:18.327Z,10.30
2019-02-10T14:46:48.764Z,10.30
2019-02-10T14:49:23.031Z,10.20
2019-02-10T14:51:58.001Z,10.20
2019-02-10T14:54:31.796Z,10.20
2019-02-10T14:57:05.023Z,10.10
2019-02-10T14:59:40.704Z,10.10
2019-02-10T15:02:15.269Z,10.10
2019-02-10T15:04:57.674Z,10.10
2019-02-10T15:07:38.645Z,10.00
2019-02-10T15:10:18.961Z,10.00
2019-02-10T15:13:00.523Z,10.00
2019-02-10T15:15:30.711Z,10.00
2019-02-10T15:18:06.167Z,10.00
2019-02-10T15:20:38.967Z,10.00
2019-02-10T15:23:25.013Z,9.90
2019-02-10T15:25:55.813Z,9.90
2019-02-10T15:28:26.077Z,9.90
2019-02-10T15:31:07.024Z,9.90
2019-02-10T15:33:52.669Z,9.90
2019-02-10T15:36:38.584Z,9.80
2019-02-10T15:39:02.849Z,9.80
2019-02-10T15:41:42.219Z,9.80
2019-02-10T15:44:17.140Z,9.80
2019-02-10T15:46:50.333Z,9.70
2019-02-10T15:49:35.632Z,9.70
2019-02-10T15:52:06.624Z,9.70
2019-02-10T15:54:43.576Z,9.70
2019-02-10T15:57:22.159Z,9.60
2019-02-10T15:59:53.682Z,9.50
2019-02-10T16:02:25.473Z,9.40
2019-02-10T16:04:57.901Z,9.40
2019-02-10T16:07:32.684Z,9.30
2019-02-10T16:10:18.490Z,9.30
2019-02-10T16:13:10.282Z,9.30
2019-02-10T16:15:41.486Z,9.30
2019-02-10T16:18:35.841Z,9.30
2019-02-10T16:21:09.533Z,9.30
2019-02-10T16:23:53.198Z,9.30
2019-02-10T16:26:27.943Z,9.30
2019-02-10T16:29:00.081Z,9.30
2019-02-10T16:31:32.288Z,9.20
2019-02-10T16:34:30.283Z,9.20
2019-02-10T16:37:05.039Z,9.20
2019-02-10T16:39:36.598Z,9.10
2019-02-10T16:42:10.075Z,9.10
2019-02-10T16:44:43.433Z,9.00
2019-02-10T16:47:22.627Z,8.80
2019-02-10T16:50:00.224Z,8.70
2019-02-10T16:52:31.668Z,8.70
2019-02-10T16:55:07.392Z,8.80
2019-02-10T16:57:38.868Z,8.80
2019-02-10T17:00:16.252Z,8.80
2019-02-10T17:02:54.679Z,8.80
2019-02-10T17:05:31.390Z,8.80
2019-02-10T17:08:07.143Z,8.80
2019-02-10T17:10:49.855Z,8.70
2019-02-10T17:14:18.088Z,8.50
2019-02-10T17:16:54.081Z,8.20
2019-02-10T17:19:24.309Z,8.00
2019-02-10T17:21:54.037Z,7.90
2019-02-10T17:24:23.936Z,7.70
2019-02-10T17:26:58.936Z,7.60
2019-02-10T17:29:33.391Z,7.50
2019-02-10T17:32:07.130Z,7.40
2019-02-10T17:34:42.911Z,6.90
2019-02-10T17:37:20.206Z,6.40
2019-02-10T17:40:00.249Z,6.20
2019-02-10T17:42:35.015Z,5.90
2019-02-10T17:45:10.230Z,5.80
2019-02-10T17:47:48.376Z,5.80
2019-02-10T17:50:41.904Z,5.70
2019-02-10T17:53:17.048Z,5.60
2019-02-10T17:56:10.168Z,5.40
2019-02-10T17:58:38.137Z,5.30
2019-02-10T18:01:15.334Z,5.30
2019-02-10T18:03:48.200Z,5.40
2019-02-10T18:06:18.292Z,5.30
2019-02-10T18:08:51.070Z,5.40
2019-02-10T18:11:30.566Z,5.40
2019-02-10T18:13:58.897Z,5.40
2019-02-10T18:16:51.559Z,5.40
2019-02-10T18:19:35.598Z,5.40
2019-02-10T18:22:17.661Z,5.30
2019-02-10T18:25:18.260Z,5.40
2019-02-10T18:28:10.001Z,5.40
2019-02-10T18:31:00.378Z,5.50
2019-02-10T18:33:48.142Z,5.40
2019-02-10T18:36:36.017Z,5.40
2019-02-10T18:39:16.882Z,5.30
2019-02-10T18:42:09.047Z,5.30
2019-02-10T18:45:24.982Z,5.30
2019-02-10T18:48:18.470Z,5.30
2019-02-10T18:51:16.557Z,5.30
2019-02-10T18:53:59.253Z,5.20
2019-02-10T18:57:04.038Z,5.20
2019-02-10T19:00:47.712Z,5.20
2019-02-10T19:07:58.883Z,5.10
2019-02-10T19:11:09.171Z,5.20
2019-02-10T19:14:23.262Z,5.20
2019-02-10T19:17:08.167Z,5.30
2019-02-10T19:19:59.626Z,5.20
2019-02-10T19:22:47.213Z,5.10
2019-02-10T19:25:36.794Z,5.10
2019-02-10T19:28:26.260Z,5.10
2019-02-10T19:31:32.251Z,5.10
2019-02-10T19:35:24.395Z,5.10
2019-02-10T19:37:59.267Z,5.10
2019-02-10T19:40:37.927Z,5.10
2019-02-10T19:44:01.576Z,5.10
2019-02-10T19:47:34.765Z,5.10
2019-02-10T19:50:37.696Z,5.10
2019-02-10T20:01:01.544Z,5.00
2019-02-10T20:08:35.879Z,5.00
2019-02-10T20:11:16.343Z,5.10
2019-02-10T20:23:02.987Z,5.00
2019-02-10T20:26:41.877Z,5.10
2019-02-10T20:34:03.330Z,5.10
2019-02-10T21:31:19.967Z,5.20
2019-02-10T21:31:47.228Z,5.10
2019-02-10T22:06:16.708Z,4.90
2019-02-10T22:10:35.550Z,4.90
2019-02-10T22:14:22.042Z,4.90
